createdAt,value
2017-02-23T00:00:34.710Z,20.8
2017-02-23T00:01:15.429Z,20.83
2017-02-23T00:01:56.264Z,20.79
2017-02-23T00:02:37.074Z,20.79
2017-02-23T00:03:17.780Z,20.71
2017-02-23T00:03:58.482Z,20.81
2017-02-23T00:04:39.280Z,20.84
2017-02-23T00:05:20.073Z,20.84
2017-02-23T00:06:00.836Z,20.8
2017-02-23T00:06:41.552Z,20.81
2017-02-23T00:07:22.273Z,20.84
2017-02-23T00:08:02.985Z,20.79
2017-02-23T00:08:43.697Z,20.77
2017-02-23T00:09:24.486Z,20.76
2017-02-23T00:10:05.129Z,20.81
2017-02-23T00:10:45.954Z,20.8
2017-02-23T00:11:26.662Z,20.72
2017-02-23T00:12:07.434Z,20.79
2017-02-23T00:12:48.144Z,20.8
2017-02-23T00:13:28.928Z,20.76
2017-02-23T00:14:09.666Z,20.79
2017-02-23T00:14:50.456Z,20.8
2017-02-23T00:15:31.220Z,20.8
2017-02-23T00:16:11.877Z,20.83
2017-02-23T00:16:52.657Z,20.79
2017-02-23T00:17:33.423Z,20.76
2017-02-23T00:18:14.172Z,20.84
2017-02-23T00:18:54.901Z,20.81
2017-02-23T00:19:35.610Z,20.9
2017-02-23T00:20:16.447Z,20.91
2017-02-23T00:20:57.233Z,20.84
2017-02-23T00:21:37.946Z,20.89
2017-02-23T00:22:18.649Z,20.87
2017-02-23T00:22:59.467Z,20.84
2017-02-23T00:23:40.212Z,20.84
2017-02-23T00:24:20.996Z,20.89
2017-02-23T00:25:01.712Z,20.9
2017-02-23T00:25:42.493Z,20.86
2017-02-23T00:26:23.280Z,20.87
2017-02-23T00:27:03.988Z,20.87
2017-02-23T00:27:44.699Z,20.91
2017-02-23T00:28:25.408Z,20.9
2017-02-23T00:29:06.170Z,20.87
2017-02-23T00:29:46.962Z,20.79
2017-02-23T00:30:27.667Z,20.8
2017-02-23T00:31:08.378Z,20.79
2017-02-23T00:31:49.102Z,20.84
2017-02-23T00:32:29.812Z,20.84
2017-02-23T00:33:10.600Z,20.81
2017-02-23T00:33:51.319Z,20.84
2017-02-23T00:34:32.031Z,20.86
2017-02-23T00:35:12.740Z,20.86
2017-02-23T00:35:53.527Z,20.8
2017-02-23T00:36:34.249Z,20.84
2017-02-23T00:37:15.027Z,20.87
2017-02-23T00:37:55.763Z,20.86
2017-02-23T00:38:36.547Z,20.84
2017-02-23T00:39:17.276Z,20.84
2017-02-23T00:39:57.966Z,20.83
2017-02-23T00:40:38.696Z,20.79
2017-02-23T00:41:19.437Z,20.77
2017-02-23T00:42:00.205Z,20.81
2017-02-23T00:42:40.912Z,20.8
2017-02-23T00:43:21.634Z,20.84
2017-02-23T00:44:02.405Z,20.87
2017-02-23T00:44:43.151Z,20.83
2017-02-23T00:45:23.865Z,20.81
2017-02-23T00:46:04.601Z,20.83
2017-02-23T00:46:45.386Z,20.77
2017-02-23T00:47:26.106Z,20.8
2017-02-23T00:48:06.816Z,20.76
2017-02-23T00:48:47.557Z,20.81
2017-02-23T00:49:28.335Z,20.74
2017-02-23T00:50:09.077Z,20.8
2017-02-23T00:50:49.785Z,20.83
2017-02-23T00:51:30.567Z,20.79
2017-02-23T00:52:11.342Z,20.84
2017-02-23T00:52:52.169Z,20.77
2017-02-23T00:53:32.881Z,20.83
2017-02-23T00:54:13.590Z,20.81
2017-02-23T00:54:54.444Z,20.87
2017-02-23T00:55:35.224Z,20.79
2017-02-23T00:56:15.979Z,20.76
2017-02-23T00:56:56.768Z,20.77
2017-02-23T00:57:37.489Z,20.76
2017-02-23T00:58:18.260Z,20.76
2017-02-23T00:58:59.084Z,20.79
2017-02-23T00:59:39.913Z,20.77
2017-02-23T01:00:20.623Z,20.74
2017-02-23T01:01:01.331Z,20.86
2017-02-23T01:01:42.091Z,20.79
2017-02-23T01:02:22.814Z,20.77
2017-02-23T01:03:03.524Z,20.86
2017-02-23T01:03:44.232Z,20.86
2017-02-23T01:04:25.062Z,20.74
2017-02-23T01:05:05.853Z,20.77
2017-02-23T01:05:46.560Z,20.72
2017-02-23T01:06:27.353Z,20.74
2017-02-23T01:07:08.074Z,20.72
2017-02-23T01:07:48.781Z,20.79
2017-02-23T01:08:29.552Z,20.74
2017-02-23T01:09:10.266Z,20.86
2017-02-23T01:09:50.981Z,20.83
2017-02-23T01:10:31.699Z,20.79
2017-02-23T01:11:12.415Z,20.76
2017-02-23T01:11:53.210Z,20.69
2017-02-23T01:12:33.927Z,20.74
2017-02-23T01:13:14.701Z,20.74
2017-02-23T01:13:55.518Z,20.71
2017-02-23T01:14:36.234Z,20.74
2017-02-23T01:15:16.972Z,20.69
2017-02-23T01:15:57.701Z,20.68
2017-02-23T01:16:38.436Z,20.68
2017-02-23T01:17:19.211Z,20.64
2017-02-23T01:18:00.000Z,20.58
2017-02-23T01:18:40.705Z,20.58
2017-02-23T01:19:21.466Z,20.58
2017-02-23T01:20:02.176Z,20.59
2017-02-23T01:20:42.988Z,20.62
2017-02-23T01:21:23.764Z,20.59
2017-02-23T01:22:04.399Z,20.72
2017-02-23T01:22:45.172Z,20.72
2017-02-23T01:23:25.884Z,20.58
2017-02-23T01:24:06.623Z,20.64
2017-02-23T01:24:47.302Z,20.77
2017-02-23T01:25:28.040Z,20.72
2017-02-23T01:26:08.823Z,20.69
2017-02-23T01:26:49.600Z,20.69
2017-02-23T01:27:30.328Z,20.68
2017-02-23T01:28:11.152Z,20.74
2017-02-23T01:28:51.938Z,20.64
2017-02-23T01:29:32.706Z,20.58
2017-02-23T01:30:13.486Z,20.58
2017-02-23T01:30:54.214Z,20.54
2017-02-23T01:31:34.960Z,20.61
2017-02-23T01:32:15.696Z,20.59
2017-02-23T01:32:56.495Z,20.59
2017-02-23T01:33:37.281Z,20.56
2017-02-23T01:34:17.969Z,20.56
2017-02-23T01:34:58.682Z,20.69
2017-02-23T01:35:39.401Z,20.54
2017-02-23T01:36:20.154Z,20.58
2017-02-23T01:37:00.846Z,20.61
2017-02-23T01:37:41.596Z,20.62
2017-02-23T01:38:22.368Z,20.58
2017-02-23T01:39:03.166Z,20.58
2017-02-23T01:39:45.947Z,20.65
2017-02-23T01:40:26.817Z,20.58
2017-02-23T01:41:07.653Z,20.54
2017-02-23T01:41:49.566Z,20.54
2017-02-23T01:42:30.416Z,20.51
2017-02-23T01:46:16.731Z,20.61
2017-02-23T01:46:57.524Z,20.47
2017-02-23T01:47:38.345Z,20.53
2017-02-23T01:48:19.137Z,20.61
2017-02-23T01:48:59.942Z,20.56
2017-02-23T01:49:40.794Z,20.59
2017-02-23T01:50:21.593Z,20.65
2017-02-23T01:51:02.368Z,20.5
2017-02-23T01:51:43.174Z,20.51
2017-02-23T01:52:23.993Z,20.51
2017-02-23T01:53:04.799Z,20.58
2017-02-23T01:53:45.646Z,20.56
2017-02-23T01:54:26.464Z,20.65
2017-02-23T01:55:07.439Z,20.54
2017-02-23T01:55:48.894Z,20.62
2017-02-23T01:56:31.575Z,20.58
2017-02-23T01:57:12.500Z,20.61
2017-02-23T01:57:53.395Z,20.53
2017-02-23T01:58:34.298Z,20.53
2017-02-23T01:59:15.205Z,20.58
2017-02-23T01:59:57.083Z,20.59
2017-02-23T02:00:37.962Z,20.61
2017-02-23T02:01:19.491Z,20.56
2017-02-23T02:02:02.920Z,20.66
2017-02-23T02:02:44.580Z,20.58
2017-02-23T02:03:26.289Z,20.61
2017-02-23T02:04:08.755Z,20.56
2017-02-23T02:04:49.688Z,20.56
2017-02-23T02:05:30.458Z,20.65
2017-02-23T02:06:11.224Z,20.59
2017-02-23T02:06:51.998Z,20.56
2017-02-23T02:07:32.766Z,20.59
2017-02-23T02:08:13.535Z,20.59
2017-02-23T02:08:54.846Z,20.58
2017-02-23T02:09:35.708Z,20.61
2017-02-23T02:10:16.472Z,20.64
2017-02-23T02:10:57.282Z,20.65
2017-02-23T02:11:38.107Z,20.59
2017-02-23T02:12:18.953Z,20.62
2017-02-23T02:12:59.751Z,20.58
2017-02-23T02:13:40.549Z,20.65
2017-02-23T02:14:21.320Z,20.61
2017-02-23T02:15:02.143Z,20.54
2017-02-23T02:15:42.961Z,20.58
2017-02-23T02:16:23.811Z,20.54
2017-02-23T02:17:04.637Z,20.58
2017-02-23T02:17:45.398Z,20.64
2017-02-23T02:18:26.195Z,20.61
2017-02-23T02:19:06.984Z,20.58
2017-02-23T02:19:47.822Z,20.72
2017-02-23T02:20:28.599Z,20.64
2017-02-23T02:21:09.370Z,20.59
2017-02-23T02:21:50.185Z,20.58
2017-02-23T02:22:31.034Z,20.56
2017-02-23T02:23:11.801Z,20.53
2017-02-23T02:23:52.638Z,20.53
2017-02-23T02:24:33.433Z,20.58
2017-02-23T02:25:14.198Z,20.58
2017-02-23T02:25:54.969Z,20.59
2017-02-23T02:26:35.839Z,20.59
2017-02-23T02:27:16.621Z,20.58
2017-02-23T02:27:57.392Z,20.54
2017-02-23T02:28:38.237Z,20.61
2017-02-23T02:29:18.933Z,20.53
2017-02-23T02:29:59.725Z,20.54
2017-02-23T02:30:40.544Z,20.58
2017-02-23T02:31:21.355Z,20.58
2017-02-23T02:32:02.200Z,20.56
2017-02-23T02:32:42.979Z,20.54
2017-02-23T02:33:23.766Z,20.53
2017-02-23T02:34:04.610Z,20.53
2017-02-23T02:34:45.401Z,20.58
2017-02-23T02:35:26.210Z,20.54
2017-02-23T02:36:07.063Z,20.61
2017-02-23T02:36:47.884Z,20.51
2017-02-23T02:37:28.649Z,20.5
2017-02-23T02:38:09.440Z,20.56
2017-02-23T02:38:50.242Z,20.56
2017-02-23T02:39:31.070Z,20.59
2017-02-23T02:40:11.927Z,20.58
2017-02-23T02:40:52.745Z,20.53
2017-02-23T02:41:33.488Z,20.56
2017-02-23T02:42:14.296Z,20.53
2017-02-23T02:42:55.087Z,20.54
2017-02-23T02:43:35.937Z,20.53
2017-02-23T02:44:16.706Z,20.5
2017-02-23T02:44:57.481Z,20.56
2017-02-23T02:45:38.328Z,20.59
2017-02-23T02:46:19.112Z,20.54
2017-02-23T02:46:59.890Z,20.56
2017-02-23T02:47:40.747Z,20.51
2017-02-23T02:48:21.544Z,20.43
2017-02-23T02:49:02.310Z,20.61
2017-02-23T02:49:43.083Z,20.54
2017-02-23T02:50:23.855Z,20.53
2017-02-23T02:51:04.624Z,20.56
2017-02-23T02:51:45.456Z,20.51
2017-02-23T02:52:26.238Z,20.47
2017-02-23T02:53:07.036Z,20.5
2017-02-23T02:53:47.836Z,20.59
2017-02-23T02:54:28.658Z,20.53
2017-02-23T02:55:09.517Z,20.53
2017-02-23T02:55:50.316Z,20.51
2017-02-23T02:56:31.141Z,20.54
2017-02-23T02:57:11.895Z,20.53
2017-02-23T02:57:52.694Z,20.54
2017-02-23T02:58:33.511Z,20.59
2017-02-23T02:59:14.326Z,20.42
2017-02-23T02:59:55.176Z,20.56
2017-02-23T03:00:35.946Z,20.53
2017-02-23T03:01:16.737Z,20.53
2017-02-23T03:01:57.540Z,20.56
2017-02-23T03:02:38.339Z,20.61
2017-02-23T03:03:19.181Z,20.58
2017-02-23T03:03:59.943Z,20.58
2017-02-23T03:04:40.713Z,20.56
2017-02-23T03:05:21.484Z,20.56
2017-02-23T03:06:02.261Z,20.56
2017-02-23T03:06:43.039Z,20.56
2017-02-23T03:07:23.851Z,20.49
2017-02-23T03:08:04.621Z,20.53
2017-02-23T03:08:45.434Z,20.56
2017-02-23T03:09:26.271Z,20.5
2017-02-23T03:10:07.072Z,20.51
2017-02-23T03:10:47.925Z,20.56
2017-02-23T03:11:28.699Z,20.53
2017-02-23T03:12:09.458Z,20.49
2017-02-23T03:12:50.267Z,20.54
2017-02-23T03:13:31.079Z,20.51
2017-02-23T03:14:11.905Z,20.5
2017-02-23T03:14:52.637Z,20.51
2017-02-23T03:15:33.319Z,20.58
2017-02-23T03:16:13.973Z,20.58
2017-02-23T03:16:54.656Z,20.56
2017-02-23T03:17:35.419Z,20.58
2017-02-23T03:18:16.081Z,20.54
2017-02-23T03:18:56.740Z,20.54
2017-02-23T03:19:37.435Z,20.53
2017-02-23T03:20:18.093Z,20.5
2017-02-23T03:20:58.846Z,20.47
2017-02-23T03:21:39.503Z,20.41
2017-02-23T03:22:20.221Z,20.38
2017-02-23T03:23:00.905Z,20.46
2017-02-23T03:23:41.625Z,20.5
2017-02-23T03:24:22.283Z,20.53
2017-02-23T03:25:02.942Z,20.51
2017-02-23T03:25:43.637Z,20.53
2017-02-23T03:26:24.374Z,20.43
2017-02-23T03:27:05.064Z,20.56
2017-02-23T03:27:45.738Z,20.51
2017-02-23T03:28:26.428Z,20.43
2017-02-23T03:29:07.167Z,20.54
2017-02-23T03:29:47.793Z,20.5
2017-02-23T03:30:28.525Z,20.42
2017-02-23T03:31:09.185Z,20.53
2017-02-23T03:31:49.807Z,20.41
2017-02-23T03:32:30.457Z,20.53
2017-02-23T03:33:11.105Z,20.5
2017-02-23T03:33:51.833Z,20.51
2017-02-23T03:34:32.475Z,20.53
2017-02-23T03:35:13.145Z,20.56
2017-02-23T03:35:53.847Z,20.5
2017-02-23T03:36:34.482Z,20.56
2017-02-23T03:37:15.158Z,20.47
2017-02-23T03:37:55.791Z,20.54
2017-02-23T03:38:36.434Z,20.43
2017-02-23T03:39:17.160Z,20.47
2017-02-23T03:39:57.828Z,20.49
2017-02-23T03:40:38.448Z,20.5
2017-02-23T03:41:19.075Z,20.41
2017-02-23T03:41:59.777Z,20.51
2017-02-23T03:42:40.406Z,20.47
2017-02-23T03:43:21.039Z,20.49
2017-02-23T03:44:01.690Z,20.43
2017-02-23T03:44:42.326Z,20.47
2017-02-23T03:45:22.954Z,20.46
2017-02-23T03:46:03.618Z,20.46
2017-02-23T03:46:44.247Z,20.43
2017-02-23T03:47:24.878Z,20.41
2017-02-23T03:48:05.545Z,20.42
2017-02-23T03:48:46.180Z,20.46
2017-02-23T03:49:26.816Z,20.42
2017-02-23T03:50:07.479Z,20.42
2017-02-23T03:50:48.171Z,20.38
2017-02-23T03:51:28.813Z,20.41
2017-02-23T03:52:09.497Z,20.54
2017-02-23T03:52:50.213Z,20.41
2017-02-23T03:53:30.840Z,20.42
2017-02-23T03:54:11.517Z,20.46
2017-02-23T03:54:52.177Z,20.51
2017-02-23T03:55:32.802Z,20.47
2017-02-23T03:56:13.488Z,20.56
2017-02-23T03:56:54.166Z,20.43
2017-02-23T03:57:34.795Z,20.43
2017-02-23T03:58:15.415Z,20.43
2017-02-23T03:58:56.144Z,20.47
2017-02-23T03:59:36.847Z,20.41
2017-02-23T04:00:17.492Z,20.39
2017-02-23T04:00:58.166Z,20.51
2017-02-23T04:01:41.123Z,20.41
2017-02-23T04:02:21.818Z,20.41
2017-02-23T04:03:02.442Z,20.39
2017-02-23T04:03:43.066Z,20.41
2017-02-23T04:04:23.746Z,20.43
2017-02-23T04:05:04.380Z,20.46
2017-02-23T04:05:45.005Z,20.42
2017-02-23T04:06:25.724Z,20.46
2017-02-23T04:07:06.343Z,20.38
2017-02-23T04:07:47.067Z,20.41
2017-02-23T04:08:27.710Z,20.43
2017-02-23T04:09:08.335Z,20.41
2017-02-23T04:09:48.961Z,20.41
2017-02-23T04:10:29.718Z,20.43
2017-02-23T04:11:10.459Z,20.41
2017-02-23T04:11:51.090Z,20.42
2017-02-23T04:12:31.750Z,20.42
2017-02-23T04:13:12.389Z,20.5
2017-02-23T04:13:53.017Z,20.42
2017-02-23T04:14:33.645Z,20.43
2017-02-23T04:15:14.303Z,20.49
2017-02-23T04:15:54.926Z,20.46
2017-02-23T04:16:35.560Z,20.49
2017-02-23T04:17:16.219Z,20.41
2017-02-23T04:17:56.843Z,20.42
2017-02-23T04:18:37.532Z,20.46
2017-02-23T04:19:18.261Z,20.42
2017-02-23T04:19:58.888Z,20.41
2017-02-23T04:20:39.591Z,20.42
2017-02-23T04:21:20.292Z,20.43
2017-02-23T04:22:00.991Z,20.47
2017-02-23T04:22:41.643Z,20.42
2017-02-23T04:23:22.269Z,20.41
2017-02-23T04:24:02.962Z,20.47
2017-02-23T04:24:43.590Z,20.42
2017-02-23T04:25:24.327Z,20.46
2017-02-23T04:26:04.961Z,20.46
2017-02-23T04:26:45.596Z,20.42
2017-02-23T04:27:26.320Z,20.46
2017-02-23T04:28:06.947Z,20.35
2017-02-23T04:28:47.574Z,20.42
2017-02-23T04:29:28.274Z,20.42
2017-02-23T04:30:08.911Z,20.39
2017-02-23T04:30:49.594Z,20.46
2017-02-23T04:31:30.201Z,20.41
2017-02-23T04:32:10.825Z,20.42
2017-02-23T04:32:51.452Z,20.41
2017-02-23T04:33:32.169Z,20.43
2017-02-23T04:34:12.894Z,20.43
2017-02-23T04:34:53.537Z,20.41
2017-02-23T04:35:34.168Z,20.46
2017-02-23T04:36:14.887Z,20.43
2017-02-23T04:36:55.536Z,20.39
2017-02-23T04:37:36.159Z,20.46
2017-02-23T04:38:16.783Z,20.46
2017-02-23T04:38:57.418Z,20.42
2017-02-23T04:39:38.040Z,20.41
2017-02-23T04:40:18.752Z,20.39
2017-02-23T04:40:59.447Z,20.41
2017-02-23T04:41:40.076Z,20.38
2017-02-23T04:42:20.755Z,20.43
2017-02-23T04:43:01.386Z,20.43
2017-02-23T04:43:42.012Z,20.35
2017-02-23T04:44:22.712Z,20.46
2017-02-23T04:45:03.347Z,20.43
2017-02-23T04:45:44.026Z,20.34
2017-02-23T04:46:24.644Z,20.42
2017-02-23T04:47:05.338Z,20.42
2017-02-23T04:47:46.005Z,20.34
2017-02-23T04:48:26.650Z,20.41
2017-02-23T04:49:07.337Z,20.47
2017-02-23T04:49:47.989Z,20.43
2017-02-23T04:50:28.615Z,20.39
2017-02-23T04:51:09.248Z,20.46
2017-02-23T04:51:49.908Z,20.41
2017-02-23T04:52:30.532Z,20.33
2017-02-23T04:53:11.165Z,20.46
2017-02-23T04:53:51.835Z,20.38
2017-02-23T04:54:32.460Z,20.31
2017-02-23T04:55:13.088Z,20.41
2017-02-23T04:55:53.771Z,20.39
2017-02-23T04:56:34.398Z,20.46
2017-02-23T04:57:15.026Z,20.34
2017-02-23T04:57:55.671Z,20.47
2017-02-23T04:58:36.293Z,20.41
2017-02-23T04:59:16.933Z,20.46
2017-02-23T04:59:57.620Z,20.41
2017-02-23T05:00:38.242Z,20.41
2017-02-23T05:01:18.876Z,20.43
2017-02-23T05:01:59.526Z,20.43
2017-02-23T05:02:40.170Z,20.41
2017-02-23T05:03:20.797Z,20.38
2017-02-23T05:04:01.476Z,20.39
2017-02-23T05:04:42.103Z,20.47
2017-02-23T05:05:22.725Z,20.5
2017-02-23T05:06:03.351Z,20.43
2017-02-23T05:06:43.973Z,20.41
2017-02-23T05:07:24.598Z,20.41
2017-02-23T05:08:05.282Z,20.41
2017-02-23T05:08:45.911Z,20.46
2017-02-23T05:09:26.586Z,20.3
2017-02-23T05:10:07.306Z,20.34
2017-02-23T05:10:47.939Z,20.41
2017-02-23T05:11:28.573Z,20.43
2017-02-23T05:12:09.248Z,20.46
2017-02-23T05:12:49.878Z,20.35
2017-02-23T05:13:30.504Z,20.41
2017-02-23T05:14:11.193Z,20.41
2017-02-23T05:14:51.827Z,20.39
2017-02-23T05:15:32.456Z,20.39
2017-02-23T05:16:13.114Z,20.38
2017-02-23T05:16:53.745Z,20.42
2017-02-23T05:17:34.376Z,20.43
2017-02-23T05:18:15.043Z,20.47
2017-02-23T05:18:55.675Z,20.39
2017-02-23T05:19:36.383Z,20.46
2017-02-23T05:20:17.056Z,20.38
2017-02-23T05:20:57.784Z,20.43
2017-02-23T05:21:38.423Z,20.41
2017-02-23T05:22:19.085Z,20.41
2017-02-23T05:22:59.715Z,20.43
2017-02-23T05:23:40.345Z,20.41
2017-02-23T05:24:21.009Z,20.34
2017-02-23T05:25:01.634Z,20.49
2017-02-23T05:25:42.270Z,20.43
2017-02-23T05:26:22.935Z,20.49
2017-02-23T05:27:03.555Z,20.35
2017-02-23T05:27:44.187Z,20.41
2017-02-23T05:28:24.875Z,20.39
2017-02-23T05:29:05.584Z,20.38
2017-02-23T05:29:46.216Z,20.41
2017-02-23T05:30:26.845Z,20.34
2017-02-23T05:31:07.545Z,20.34
2017-02-23T05:31:48.172Z,20.38
2017-02-23T05:32:28.932Z,20.42
2017-02-23T05:33:09.573Z,20.33
2017-02-23T05:33:50.319Z,20.34
2017-02-23T05:34:30.963Z,20.35
2017-02-23T05:35:11.608Z,20.41
2017-02-23T05:35:52.236Z,20.41
2017-02-23T05:36:32.876Z,20.39
2017-02-23T05:37:13.524Z,20.25
2017-02-23T05:37:54.154Z,20.39
2017-02-23T05:38:34.784Z,20.25
2017-02-23T05:39:15.452Z,20.21
2017-02-23T05:39:56.077Z,20.24
2017-02-23T05:40:36.706Z,20.24
2017-02-23T05:41:17.381Z,20.31
2017-02-23T05:41:58.012Z,20.24
2017-02-23T05:42:38.641Z,20.18
2017-02-23T05:43:19.314Z,20.21
2017-02-23T05:44:00.004Z,20.21
2017-02-23T05:44:40.628Z,20.2
2017-02-23T05:45:21.288Z,20.23
2017-02-23T05:46:01.980Z,20.21
2017-02-23T05:46:42.611Z,20.21
2017-02-23T05:47:23.235Z,20.23
2017-02-23T05:48:03.948Z,20.15
2017-02-23T05:48:44.581Z,20.24
2017-02-23T05:49:25.285Z,20.25
2017-02-23T05:50:05.949Z,20.12
2017-02-23T05:50:46.577Z,20.23
2017-02-23T05:51:27.205Z,20.2
2017-02-23T05:52:07.860Z,20.24
2017-02-23T05:52:48.515Z,20.25
2017-02-23T05:53:29.148Z,20.2
2017-02-23T05:54:09.796Z,20.23
2017-02-23T05:54:50.514Z,20.24
2017-02-23T05:55:31.157Z,20.25
2017-02-23T05:56:11.821Z,20.23
2017-02-23T05:56:52.450Z,20.21
2017-02-23T05:57:33.077Z,20.25
2017-02-23T05:58:13.747Z,20.23
2017-02-23T05:58:54.370Z,20.18
2017-02-23T05:59:34.995Z,20.23
2017-02-23T06:00:15.668Z,20.23
2017-02-23T06:00:56.295Z,20.28
2017-02-23T06:01:36.920Z,20.24
2017-02-23T06:02:17.599Z,20.28
2017-02-23T06:02:58.320Z,20.31
2017-02-23T06:03:38.951Z,20.31
2017-02-23T06:04:19.694Z,20.24
2017-02-23T06:05:00.371Z,20.31
2017-02-23T06:05:41.092Z,20.27
2017-02-23T06:06:21.735Z,20.27
2017-02-23T06:07:02.358Z,20.31
2017-02-23T06:07:42.982Z,20.23
2017-02-23T06:08:23.620Z,20.27
2017-02-23T06:09:04.289Z,20.24
2017-02-23T06:09:44.925Z,20.24
2017-02-23T06:10:25.556Z,20.25
2017-02-23T06:11:06.219Z,20.28
2017-02-23T06:11:46.893Z,20.27
2017-02-23T06:12:27.519Z,20.18
2017-02-23T06:13:08.178Z,20.24
2017-02-23T06:13:48.807Z,20.21
2017-02-23T06:14:29.431Z,20.2
2017-02-23T06:15:10.107Z,20.3
2017-02-23T06:15:50.732Z,20.33
2017-02-23T06:16:31.357Z,20.24
2017-02-23T06:17:12.040Z,20.24
2017-02-23T06:17:52.757Z,20.24
2017-02-23T06:18:33.384Z,20.23
2017-02-23T06:19:14.056Z,20.21
2017-02-23T06:19:54.722Z,20.33
2017-02-23T06:20:35.349Z,20.24
2017-02-23T06:21:15.973Z,20.28
2017-02-23T06:21:56.683Z,20.18
2017-02-23T06:22:37.307Z,20.27
2017-02-23T06:23:17.948Z,20.24
2017-02-23T06:23:58.633Z,20.23
2017-02-23T06:24:39.260Z,20.23
2017-02-23T06:25:19.886Z,20.2
2017-02-23T06:26:00.562Z,20.18
2017-02-23T06:26:41.197Z,20.18
2017-02-23T06:27:21.883Z,20.25
2017-02-23T06:28:02.521Z,20.28
2017-02-23T06:28:43.151Z,20.18
2017-02-23T06:29:23.784Z,20.27
2017-02-23T06:30:04.461Z,20.25
2017-02-23T06:30:45.137Z,20.2
2017-02-23T06:31:25.790Z,20.23
2017-02-23T06:32:06.440Z,20.16
2017-02-23T06:32:47.071Z,20.21
2017-02-23T06:33:27.697Z,20.24
2017-02-23T06:34:08.367Z,20.25
2017-02-23T06:34:49.004Z,20.18
2017-02-23T06:35:29.630Z,20.21
2017-02-23T06:36:10.297Z,20.18
2017-02-23T06:36:50.932Z,20.16
2017-02-23T06:37:31.616Z,20.23
2017-02-23T06:38:12.269Z,20.15
2017-02-23T06:38:52.976Z,20.27
2017-02-23T06:39:33.607Z,20.24
2017-02-23T06:40:14.280Z,20.2
2017-02-23T06:40:54.944Z,20.25
2017-02-23T06:41:35.572Z,20.24
2017-02-23T06:42:16.240Z,20.23
2017-02-23T06:42:56.981Z,20.24
2017-02-23T06:43:37.612Z,20.23
2017-02-23T06:44:18.241Z,20.23
2017-02-23T06:44:58.903Z,20.25
2017-02-23T06:45:39.527Z,20.25
2017-02-23T06:46:20.153Z,20.21
2017-02-23T06:47:00.806Z,20.24
2017-02-23T06:47:41.470Z,20.24
2017-02-23T06:48:22.094Z,20.21
2017-02-23T06:49:02.768Z,20.2
2017-02-23T06:49:43.430Z,20.24
2017-02-23T06:50:24.058Z,20.23
2017-02-23T06:51:04.768Z,20.16
2017-02-23T06:51:45.527Z,20.27
2017-02-23T06:52:26.156Z,20.2
2017-02-23T06:53:06.781Z,20.23
2017-02-23T06:53:47.456Z,20.18
2017-02-23T06:54:28.081Z,20.23
2017-02-23T06:55:08.704Z,20.23
2017-02-23T06:55:49.374Z,20.18
2017-02-23T06:56:29.999Z,20.21
2017-02-23T06:57:10.728Z,20.21
2017-02-23T06:57:51.447Z,20.25
2017-02-23T06:58:32.081Z,20.27
2017-02-23T06:59:12.712Z,20.2
2017-02-23T06:59:53.404Z,20.25
2017-02-23T07:00:34.064Z,20.15
2017-02-23T07:01:14.693Z,20.2
2017-02-23T07:01:55.350Z,20.16
2017-02-23T07:02:35.976Z,20.2
2017-02-23T07:03:16.600Z,20.21
2017-02-23T07:03:57.286Z,20.24
2017-02-23T07:04:38.000Z,20.23
2017-02-23T07:05:18.629Z,20.25
2017-02-23T07:05:59.306Z,20.21
2017-02-23T07:06:39.999Z,20.21
2017-02-23T07:07:20.623Z,20.16
2017-02-23T07:08:01.256Z,20.24
2017-02-23T07:08:41.956Z,20.21
2017-02-23T07:09:22.598Z,20.18
2017-02-23T07:10:03.222Z,20.15
2017-02-23T07:10:43.915Z,20.23
2017-02-23T07:11:24.662Z,20.2
2017-02-23T07:12:05.292Z,20.18
2017-02-23T07:12:46.589Z,20.13
2017-02-23T07:13:27.226Z,20.28
2017-02-23T07:14:07.922Z,20.2
2017-02-23T07:14:48.647Z,20.09
2017-02-23T07:15:29.276Z,20.16
2017-02-23T07:16:09.945Z,20.03
2017-02-23T07:16:50.699Z,20.23
2017-02-23T07:17:31.400Z,20.13
2017-02-23T07:18:12.046Z,20.2
2017-02-23T07:18:52.742Z,20.15
2017-02-23T07:19:33.487Z,20.09
2017-02-23T07:20:14.116Z,20.12
2017-02-23T07:20:54.748Z,20.09
2017-02-23T07:21:35.398Z,20.05
2017-02-23T07:22:16.031Z,20.1
2017-02-23T07:22:56.720Z,20.15
2017-02-23T07:23:37.391Z,20.2
2017-02-23T07:24:18.020Z,20.02
2017-02-23T07:24:58.648Z,20.1
2017-02-23T07:25:39.323Z,20.12
2017-02-23T07:26:19.953Z,20.05
2017-02-23T07:27:00.593Z,20.05
2017-02-23T07:27:41.292Z,20.03
2017-02-23T07:28:21.972Z,20.12
2017-02-23T07:29:02.617Z,20.03
2017-02-23T07:29:43.270Z,20.03
2017-02-23T07:30:23.907Z,20.16
2017-02-23T07:31:04.553Z,20.12
2017-02-23T07:31:45.298Z,20.06
2017-02-23T07:32:25.999Z,20.06
2017-02-23T07:33:06.632Z,20.08
2017-02-23T07:33:47.278Z,20.06
2017-02-23T07:34:27.978Z,20.15
2017-02-23T07:35:08.604Z,20.03
2017-02-23T07:35:49.234Z,20.13
2017-02-23T07:36:29.903Z,20.09
2017-02-23T07:37:10.529Z,20.15
2017-02-23T07:37:51.175Z,20.03
2017-02-23T07:38:31.868Z,20.15
2017-02-23T07:39:12.492Z,20.13
2017-02-23T07:39:53.137Z,20.09
2017-02-23T07:40:33.851Z,20.13
2017-02-23T07:41:14.556Z,20.08
2017-02-23T07:41:55.193Z,20.1
2017-02-23T07:42:35.873Z,20.1
2017-02-23T07:43:16.527Z,20.05
2017-02-23T07:43:57.157Z,20.1
2017-02-23T07:44:37.797Z,20.08
2017-02-23T07:45:18.502Z,20.08
2017-02-23T07:45:59.128Z,20.06
2017-02-23T07:46:39.755Z,20.05
2017-02-23T07:47:20.421Z,20.09
2017-02-23T07:48:01.049Z,19.98
2017-02-23T07:48:41.793Z,20.02
2017-02-23T07:49:22.446Z,20.09
2017-02-23T07:50:03.185Z,20.09
2017-02-23T07:50:43.840Z,20.09
2017-02-23T07:51:24.479Z,20.05
2017-02-23T07:52:05.109Z,20
2017-02-23T07:52:45.745Z,20.06
2017-02-23T07:53:26.452Z,20.1
2017-02-23T07:54:07.119Z,20
2017-02-23T07:54:47.754Z,20.02
2017-02-23T07:55:28.383Z,20
2017-02-23T07:56:09.073Z,19.9
2017-02-23T07:56:49.702Z,19.91
2017-02-23T07:57:30.416Z,20
2017-02-23T07:58:11.067Z,19.98
2017-02-23T07:58:51.698Z,19.94
2017-02-23T07:59:32.322Z,19.91
2017-02-23T08:00:12.993Z,19.91
2017-02-23T08:00:53.637Z,19.9
2017-02-23T08:01:34.264Z,20
2017-02-23T08:02:14.898Z,19.95
2017-02-23T08:02:55.547Z,19.95
2017-02-23T08:03:36.191Z,20
2017-02-23T08:04:16.858Z,19.94
2017-02-23T08:04:57.495Z,19.97
2017-02-23T08:05:38.122Z,20.02
2017-02-23T08:06:18.819Z,20
2017-02-23T08:06:59.514Z,19.94
2017-02-23T08:07:40.173Z,20
2017-02-23T08:08:20.835Z,20.08
2017-02-23T08:09:01.469Z,19.95
2017-02-23T08:09:42.096Z,20.09
2017-02-23T08:10:22.775Z,19.93
2017-02-23T08:11:03.468Z,20.02
2017-02-23T08:11:44.102Z,19.95
2017-02-23T08:12:24.729Z,20.05
2017-02-23T08:13:05.441Z,20.02
2017-02-23T08:13:46.086Z,20
2017-02-23T08:14:26.715Z,20.05
2017-02-23T08:15:07.367Z,20.05
2017-02-23T08:15:48.005Z,20.03
2017-02-23T08:16:28.635Z,20.02
2017-02-23T08:17:09.304Z,20
2017-02-23T08:17:49.934Z,20.03
2017-02-23T08:18:30.563Z,19.98
2017-02-23T08:19:11.291Z,20.03
2017-02-23T08:19:51.912Z,20.05
2017-02-23T08:20:32.597Z,20
2017-02-23T08:21:13.249Z,20.05
2017-02-23T08:21:53.960Z,20.02
2017-02-23T08:22:34.605Z,20.03
2017-02-23T08:23:16.093Z,20.02
2017-02-23T08:23:56.726Z,19.94
2017-02-23T08:24:37.386Z,19.93
2017-02-23T08:25:18.100Z,20
2017-02-23T08:25:58.740Z,19.9
2017-02-23T08:26:39.388Z,19.93
2017-02-23T08:27:20.032Z,19.9
2017-02-23T08:28:00.771Z,19.93
2017-02-23T08:28:41.420Z,19.98
2017-02-23T08:29:22.076Z,20.03
2017-02-23T08:30:02.787Z,20.05
2017-02-23T08:30:43.433Z,20.02
2017-02-23T08:31:24.062Z,20.08
2017-02-23T08:32:04.750Z,20.03
2017-02-23T08:32:45.401Z,19.91
2017-02-23T08:33:26.051Z,19.94
2017-02-23T08:34:06.787Z,19.93
2017-02-23T08:34:47.422Z,20.02
2017-02-23T08:35:28.050Z,20.06
2017-02-23T08:36:08.701Z,20.06
2017-02-23T08:36:49.390Z,19.98
2017-02-23T08:37:30.033Z,20.08
2017-02-23T08:38:10.688Z,20.06
2017-02-23T08:38:51.318Z,20.08
2017-02-23T08:39:31.942Z,20.05
2017-02-23T08:40:12.687Z,19.93
2017-02-23T08:40:53.366Z,19.91
2017-02-23T08:41:33.993Z,19.94
2017-02-23T08:42:14.632Z,19.93
2017-02-23T08:42:55.363Z,19.94
2017-02-23T08:43:35.998Z,19.95
2017-02-23T08:44:16.701Z,20.02
2017-02-23T08:44:57.390Z,19.88
2017-02-23T08:45:38.067Z,19.97
2017-02-23T08:46:18.712Z,20
2017-02-23T08:46:59.371Z,19.97
2017-02-23T08:47:40.012Z,20.02
2017-02-23T08:48:20.644Z,19.97
2017-02-23T08:49:01.303Z,19.95
2017-02-23T08:49:41.967Z,19.95